Observations for KINLOSS RAF, United Kingdom (EGQK)

EGQK 180250Z AUTO 19007KT 9999 FEW050/// 03/M00 Q1017   
EGQK 180150Z AUTO 19006KT //// FEW050/// 02/00 Q1017
EGQK 180050Z AUTO 30001KT 9999 SCT050/// BKN160/// 02/01 Q1017  
EGQK 172350Z AUTO 29003KT 9999 OVC050/// 01/M01 Q1017   
EGQK 172250Z AUTO 03001KT 9999 SCT060/// BKN110/// 02/M00 Q1016 
EGQK 172150Z AUTO 21005KT 9999 SCT060/// BKN150/// 03/01 Q1016  
EGQK 172050Z AUTO 21006KT 9999 BKN070/// BKN200/// 04/01 Q1016  
EGQK 171950Z AUTO 21006KT 9999 BKN070/// 04/01 Q1015 RERA   
EGQK 171850Z AUTO 23007KT 9999 FEW030/// BKN038/// BKN080/// 05/01 Q1015
EGQK 171750Z AUTO 21007KT 9999 FEW050/// BKN080/// 05/00 Q1015  
EGQK 171650Z AUTO 23009KT 9999 FEW028/// 05/00 Q1014
EGQK 171550Z AUTO 23013KT 9999 NCD 07/00 Q1013  
EGQK 171450Z AUTO 23011KT 9999 FEW030/// 07/01 Q1013
EGQK 171350Z AUTO 24010KT 9999 FEW030/// 08/01 Q1013
EGQK 171250Z AUTO 24014KT 9999 FEW110/// 07/01 Q1013
EGQK 171150Z AUTO 24015KT 9999 BKN100/// 06/01 Q1012
EGQK 171050Z AUTO 24012KT 9999 FEW027/// 07/01 Q1012
EGQK 170950Z AUTO 20007KT 9999 NCD 06/01 Q1011  
EGQK 170850Z AUTO 22006KT 9999 NCD 04/01 Q1011  
EGQK 170750Z AUTO 21003KT 9999 NCD 01/M01 Q1011 
EGQK 170650Z AUTO 21005KT 9999 SCT160/// 03/M01 Q1011   
EGQK 170550Z AUTO 21004KT //// NCD 03/M01 Q1011 
EGQK 170450Z AUTO 20004KT 9999 FEW200/// 04/00 Q1011
EGQK 170350Z AUTO 20009KT //// OVC150/// 05/01 Q1010
EGQK 170250Z AUTO 20007KT 9999 BKN140/// 05/01 Q1010